sensor_id;sensor_type;location;lat;lon;timestamp;P1;durP1;ratioP1;P2;durP2;ratioP2
70153;SDS011;57519;51.494;-2.626;2022-10-10T00:00:55;10.13;;;4.40;;
70153;SDS011;57519;51.494;-2.626;2022-10-10T00:03:21;8.33;;;4.13;;
70153;SDS011;57519;51.494;-2.626;2022-10-10T00:05:46;8.40;;;3.97;;
70153;SDS011;57519;51.494;-2.626;2022-10-10T00:08:11;12.00;;;4.90;;
70153;SDS011;57519;51.494;-2.626;2022-10-10T00:10:37;10.93;;;4.37;;
70153;SDS011;57519;51.494;-2.626;2022-10-10T00:13:03;5.97;;;3.77;;
70153;SDS011;57519;51.494;-2.626;2022-10-10T00:15:29;10.23;;;4.37;;
70153;SDS011;57519;51.494;-2.626;2022-10-10T00:17:55;10.70;;;4.50;;
70153;SDS011;57519;51.494;-2.626;2022-10-10T00:20:20;12.40;;;4.20;;
70153;SDS011;57519;51.494;-2.626;2022-10-10T00:22:46;12.53;;;4.57;;
70153;SDS011;57519;51.494;-2.626;2022-10-10T00:25:12;7.43;;;4.13;;
70153;SDS011;57519;51.494;-2.626;2022-10-10T00:27:38;13.45;;;4.53;;
70153;SDS011;57519;51.494;-2.626;2022-10-10T00:30:05;6.73;;;3.67;;
70153;SDS011;57519;51.494;-2.626;2022-10-10T00:32:31;10.63;;;4.10;;
70153;SDS011;57519;51.494;-2.626;2022-10-10T00:34:57;10.50;;;4.10;;
70153;SDS011;57519;51.494;-2.626;2022-10-10T00:37:22;7.97;;;3.73;;
70153;SDS011;57519;51.494;-2.626;2022-10-10T00:39:48;8.68;;;3.88;;
70153;SDS011;57519;51.494;-2.626;2022-10-10T00:42:14;7.40;;;3.73;;
70153;SDS011;57519;51.494;-2.626;2022-10-10T00:44:42;9.15;;;4.18;;
70153;SDS011;57519;51.494;-2.626;2022-10-10T00:47:08;9.98;;;3.97;;
70153;SDS011;57519;51.494;-2.626;2022-10-10T00:49:35;6.63;;;3.87;;
70153;SDS011;57519;51.494;-2.626;2022-10-10T00:52:05;6.82;;;3.80;;
70153;SDS011;57519;51.494;-2.626;2022-10-10T00:54:33;14.70;;;5.20;;
70153;SDS011;57519;51.494;-2.626;2022-10-10T00:57:03;8.88;;;3.67;;
70153;SDS011;57519;51.494;-2.626;2022-10-10T00:59:32;7.50;;;3.67;;
70153;SDS011;57519;51.494;-2.626;2022-10-10T01:02:00;8.00;;;3.95;;
70153;SDS011;57519;51.494;-2.626;2022-10-10T01:04:34;6.63;;;3.57;;
70153;SDS011;57519;51.494;-2.626;2022-10-10T01:07:03;10.23;;;4.47;;
70153;SDS011;57519;51.494;-2.626;2022-10-10T01:09:35;8.98;;;3.95;;
70153;SDS011;57519;51.494;-2.626;2022-10-10T01:17:24;12.45;;;4.50;;
70153;SDS011;57519;51.494;-2.626;2022-10-10T01:31:01;8.98;;;3.90;;
70153;SDS011;57519;51.494;-2.626;2022-10-10T01:33:31;13.23;;;4.50;;
70153;SDS011;57519;51.494;-2.626;2022-10-10T01:36:11;8.32;;;3.90;;
70153;SDS011;57519;51.494;-2.626;2022-10-10T01:39:06;12.45;;;4.22;;
70153;SDS011;57519;51.494;-2.626;2022-10-10T01:41:45;10.43;;;4.40;;
70153;SDS011;57519;51.494;-2.626;2022-10-10T01:44:17;8.20;;;4.13;;
70153;SDS011;57519;51.494;-2.626;2022-10-10T01:46:45;9.57;;;4.13;;
70153;SDS011;57519;51.494;-2.626;2022-10-10T01:49:11;14.80;;;4.50;;
70153;SDS011;57519;51.494;-2.626;2022-10-10T01:51:46;10.40;;;4.27;;
70153;SDS011;57519;51.494;-2.626;2022-10-10T01:57:15;11.40;;;4.83;;
70153;SDS011;57519;51.494;-2.626;2022-10-10T02:00:07;13.80;;;4.85;;
70153;SDS011;57519;51.494;-2.626;2022-10-10T02:08:09;9.88;;;4.32;;
70153;SDS011;57519;51.494;-2.626;2022-10-10T02:10:40;10.10;;;4.40;;
70153;SDS011;57519;51.494;-2.626;2022-10-10T02:13:09;8.45;;;4.00;;
70153;SDS011;57519;51.494;-2.626;2022-10-10T02:15:49;11.77;;;4.55;;
70153;SDS011;57519;51.494;-2.626;2022-10-10T02:18:19;7.97;;;4.22;;
70153;SDS011;57519;51.494;-2.626;2022-10-10T02:20:47;16.83;;;5.38;;
70153;SDS011;57519;51.494;-2.626;2022-10-10T02:23:15;12.23;;;4.13;;
70153;SDS011;57519;51.494;-2.626;2022-10-10T02:25:45;8.75;;;4.40;;
70153;SDS011;57519;51.494;-2.626;2022-10-10T02:31:05;10.30;;;4.50;;
70153;SDS011;57519;51.494;-2.626;2022-10-10T02:33:43;8.63;;;4.20;;
70153;SDS011;57519;51.494;-2.626;2022-10-10T02:36:13;10.43;;;4.50;;
70153;SDS011;57519;51.494;-2.626;2022-10-10T02:38:40;13.35;;;5.22;;
70153;SDS011;57519;51.494;-2.626;2022-10-10T02:41:07;10.13;;;4.70;;
70153;SDS011;57519;51.494;-2.626;2022-10-10T02:43:35;8.25;;;4.22;;
70153;SDS011;57519;51.494;-2.626;2022-10-10T02:46:02;15.70;;;5.47;;
70153;SDS011;57519;51.494;-2.626;2022-10-10T02:48:31;10.80;;;5.00;;
70153;SDS011;57519;51.494;-2.626;2022-10-10T02:50:57;10.82;;;5.07;;
70153;SDS011;57519;51.494;-2.626;2022-10-10T02:53:23;9.93;;;4.70;;
70153;SDS011;57519;51.494;-2.626;2022-10-10T02:55:48;10.37;;;4.70;;
70153;SDS011;57519;51.494;-2.626;2022-10-10T02:58:14;14.27;;;5.50;;
70153;SDS011;57519;51.494;-2.626;2022-10-10T03:00:39;8.10;;;4.73;;
70153;SDS011;57519;51.494;-2.626;2022-10-10T03:03:05;9.45;;;4.80;;
70153;SDS011;57519;51.494;-2.626;2022-10-10T03:05:30;11.40;;;4.83;;
70153;SDS011;57519;51.494;-2.626;2022-10-10T03:07:56;7.80;;;4.43;;
70153;SDS011;57519;51.494;-2.626;2022-10-10T03:10:21;14.80;;;5.27;;
70153;SDS011;57519;51.494;-2.626;2022-10-10T03:12:47;11.90;;;5.17;;
70153;SDS011;57519;51.494;-2.626;2022-10-10T03:15:12;15.23;;;5.60;;
70153;SDS011;57519;51.494;-2.626;2022-10-10T03:17:38;8.80;;;4.97;;
70153;SDS011;57519;51.494;-2.626;2022-10-10T03:20:04;11.63;;;5.38;;
70153;SDS011;57519;51.494;-2.626;2022-10-10T03:22:30;12.02;;;4.95;;
70153;SDS011;57519;51.494;-2.626;2022-10-10T03:24:55;12.83;;;5.20;;
70153;SDS011;57519;51.494;-2.626;2022-10-10T03:27:20;14.93;;;4.80;;
70153;SDS011;57519;51.494;-2.626;2022-10-10T03:29:46;9.13;;;4.57;;
70153;SDS011;57519;51.494;-2.626;2022-10-10T03:32:11;12.02;;;5.18;;
70153;SDS011;57519;51.494;-2.626;2022-10-10T03:34:37;11.63;;;5.50;;
70153;SDS011;57519;51.494;-2.626;2022-10-10T03:37:02;12.30;;;5.13;;
70153;SDS011;57519;51.494;-2.626;2022-10-10T03:39:27;10.33;;;5.00;;
70153;SDS011;57519;51.494;-2.626;2022-10-10T03:41:53;11.00;;;5.23;;
70153;SDS011;57519;51.494;-2.626;2022-10-10T03:44:18;11.65;;;5.22;;
70153;SDS011;57519;51.494;-2.626;2022-10-10T03:46:44;15.47;;;5.10;;
70153;SDS011;57519;51.494;-2.626;2022-10-10T03:49:09;10.73;;;4.93;;
70153;SDS011;57519;51.494;-2.626;2022-10-10T03:51:34;12.27;;;5.47;;
70153;SDS011;57519;51.494;-2.626;2022-10-10T03:54:00;18.00;;;6.57;;
70153;SDS011;57519;51.494;-2.626;2022-10-10T03:56:25;13.40;;;6.23;;
70153;SDS011;57519;51.494;-2.626;2022-10-10T03:58:51;14.27;;;6.07;;
70153;SDS011;57519;51.494;-2.626;2022-10-10T04:01:16;15.50;;;6.53;;
70153;SDS011;57519;51.494;-2.626;2022-10-10T04:03:41;11.97;;;6.70;;
70153;SDS011;57519;51.494;-2.626;2022-10-10T04:06:07;16.13;;;7.20;;
70153;SDS011;57519;51.494;-2.626;2022-10-10T04:08:32;11.47;;;5.63;;
70153;SDS011;57519;51.494;-2.626;2022-10-10T04:10:58;11.37;;;5.87;;
70153;SDS011;57519;51.494;-2.626;2022-10-10T04:13:23;9.33;;;5.53;;
70153;SDS011;57519;51.494;-2.626;2022-10-10T04:15:52;8.73;;;4.85;;
70153;SDS011;57519;51.494;-2.626;2022-10-10T04:18:19;8.93;;;4.57;;
70153;SDS011;57519;51.494;-2.626;2022-10-10T04:20:44;9.10;;;4.70;;
70153;SDS011;57519;51.494;-2.626;2022-10-10T04:23:10;7.75;;;4.25;;
70153;SDS011;57519;51.494;-2.626;2022-10-10T04:25:35;6.83;;;3.93;;
70153;SDS011;57519;51.494;-2.626;2022-10-10T04:28:01;12.60;;;5.50;;
70153;SDS011;57519;51.494;-2.626;2022-10-10T04:30:27;9.30;;;4.50;;
70153;SDS011;57519;51.494;-2.626;2022-10-10T04:32:57;9.60;;;4.25;;
70153;SDS011;57519;51.494;-2.626;2022-10-10T04:35:23;7.88;;;4.05;;
70153;SDS011;57519;51.494;-2.626;2022-10-10T04:37:49;8.63;;;4.25;;
70153;SDS011;57519;51.494;-2.626;2022-10-10T04:40:15;12.07;;;4.90;;
70153;SDS011;57519;51.494;-2.626;2022-10-10T04:42:40;4.80;;;3.57;;
70153;SDS011;57519;51.494;-2.626;2022-10-10T04:45:06;6.57;;;3.35;;
70153;SDS011;57519;51.494;-2.626;2022-10-10T04:47:31;7.13;;;3.73;;
70153;SDS011;57519;51.494;-2.626;2022-10-10T04:49:57;11.57;;;3.75;;
70153;SDS011;57519;51.494;-2.626;2022-10-10T04:52:22;6.50;;;3.47;;
70153;SDS011;57519;51.494;-2.626;2022-10-10T04:54:48;8.40;;;3.90;;
70153;SDS011;57519;51.494;-2.626;2022-10-10T04:57:13;12.50;;;4.83;;
70153;SDS011;57519;51.494;-2.626;2022-10-10T04:59:39;6.17;;;3.83;;
70153;SDS011;57519;51.494;-2.626;2022-10-10T05:02:04;10.53;;;4.83;;
70153;SDS011;57519;51.494;-2.626;2022-10-10T05:04:29;8.10;;;4.27;;
70153;SDS011;57519;51.494;-2.626;2022-10-10T05:06:55;9.30;;;4.53;;
70153;SDS011;57519;51.494;-2.626;2022-10-10T05:09:20;12.97;;;4.43;;
70153;SDS011;57519;51.494;-2.626;2022-10-10T05:11:45;6.93;;;3.67;;
70153;SDS011;57519;51.494;-2.626;2022-10-10T05:14:11;12.87;;;4.67;;
70153;SDS011;57519;51.494;-2.626;2022-10-10T05:16:36;11.57;;;4.70;;
70153;SDS011;57519;51.494;-2.626;2022-10-10T05:19:02;9.00;;;4.37;;
70153;SDS011;57519;51.494;-2.626;2022-10-10T05:21:27;12.67;;;4.43;;
70153;SDS011;57519;51.494;-2.626;2022-10-10T05:23:53;6.33;;;4.13;;
70153;SDS011;57519;51.494;-2.626;2022-10-10T05:26:18;10.63;;;4.30;;
70153;SDS011;57519;51.494;-2.626;2022-10-10T05:28:44;15.93;;;5.22;;
70153;SDS011;57519;51.494;-2.626;2022-10-10T05:31:10;9.47;;;4.03;;
70153;SDS011;57519;51.494;-2.626;2022-10-10T05:33:35;8.75;;;4.10;;
70153;SDS011;57519;51.494;-2.626;2022-10-10T05:36:04;17.57;;;5.23;;
70153;SDS011;57519;51.494;-2.626;2022-10-10T05:38:32;8.63;;;3.97;;
70153;SDS011;57519;51.494;-2.626;2022-10-10T05:40:58;11.50;;;3.80;;
70153;SDS011;57519;51.494;-2.626;2022-10-10T05:43:24;12.68;;;4.20;;
70153;SDS011;57519;51.494;-2.626;2022-10-10T05:45:50;10.30;;;4.05;;
70153;SDS011;57519;51.494;-2.626;2022-10-10T05:48:16;11.80;;;4.50;;
70153;SDS011;57519;51.494;-2.626;2022-10-10T05:50:44;11.77;;;4.25;;
70153;SDS011;57519;51.494;-2.626;2022-10-10T05:53:12;14.50;;;4.55;;
70153;SDS011;57519;51.494;-2.626;2022-10-10T05:55:37;15.30;;;5.23;;
70153;SDS011;57519;51.494;-2.626;2022-10-10T05:58:03;11.18;;;4.93;;
70153;SDS011;57519;51.494;-2.626;2022-10-10T06:00:29;12.67;;;4.80;;
70153;SDS011;57519;51.494;-2.626;2022-10-10T06:02:54;10.67;;;5.03;;
70153;SDS011;57519;51.494;-2.626;2022-10-10T06:05:22;11.90;;;4.85;;
70153;SDS011;57519;51.494;-2.626;2022-10-10T06:07:48;17.13;;;5.05;;
70153;SDS011;57519;51.494;-2.626;2022-10-10T06:10:13;13.67;;;5.10;;
70153;SDS011;57519;51.494;-2.626;2022-10-10T06:12:38;7.87;;;3.53;;
70153;SDS011;57519;51.494;-2.626;2022-10-10T06:15:04;9.60;;;4.07;;
70153;SDS011;57519;51.494;-2.626;2022-10-10T06:17:30;13.57;;;4.63;;
70153;SDS011;57519;51.494;-2.626;2022-10-10T06:19:55;15.07;;;5.27;;
70153;SDS011;57519;51.494;-2.626;2022-10-10T06:22:21;12.50;;;4.90;;
70153;SDS011;57519;51.494;-2.626;2022-10-10T06:24:46;7.47;;;3.43;;
70153;SDS011;57519;51.494;-2.626;2022-10-10T06:27:12;10.67;;;4.23;;
70153;SDS011;57519;51.494;-2.626;2022-10-10T06:29:37;7.68;;;4.35;;
70153;SDS011;57519;51.494;-2.626;2022-10-10T06:32:02;15.73;;;5.30;;
70153;SDS011;57519;51.494;-2.626;2022-10-10T06:34:28;13.03;;;5.23;;
70153;SDS011;57519;51.494;-2.626;2022-10-10T06:36:53;14.03;;;5.87;;
70153;SDS011;57519;51.494;-2.626;2022-10-10T06:39:19;12.00;;;4.85;;
70153;SDS011;57519;51.494;-2.626;2022-10-10T06:41:44;8.57;;;4.87;;
70153;SDS011;57519;51.494;-2.626;2022-10-10T06:44:10;11.33;;;5.30;;
70153;SDS011;57519;51.494;-2.626;2022-10-10T06:46:35;11.77;;;4.65;;
70153;SDS011;57519;51.494;-2.626;2022-10-10T06:49:04;11.20;;;5.43;;
70153;SDS011;57519;51.494;-2.626;2022-10-10T06:51:30;10.07;;;3.88;;
70153;SDS011;57519;51.494;-2.626;2022-10-10T06:53:56;19.77;;;5.75;;
70153;SDS011;57519;51.494;-2.626;2022-10-10T06:56:22;13.93;;;5.50;;
70153;SDS011;57519;51.494;-2.626;2022-10-10T06:58:48;9.65;;;4.65;;
70153;SDS011;57519;51.494;-2.626;2022-10-10T07:01:15;12.02;;;5.22;;
70153;SDS011;57519;51.494;-2.626;2022-10-10T07:03:42;9.73;;;5.63;;
70153;SDS011;57519;51.494;-2.626;2022-10-10T07:06:08;14.68;;;5.97;;
70153;SDS011;57519;51.494;-2.626;2022-10-10T07:08:35;9.55;;;5.10;;
70153;SDS011;57519;51.494;-2.626;2022-10-10T07:11:00;14.43;;;4.97;;
70153;SDS011;57519;51.494;-2.626;2022-10-10T07:13:26;12.10;;;5.13;;
70153;SDS011;57519;51.494;-2.626;2022-10-10T07:15:52;10.83;;;4.57;;
70153;SDS011;57519;51.494;-2.626;2022-10-10T07:18:17;15.17;;;6.37;;
70153;SDS011;57519;51.494;-2.626;2022-10-10T07:20:43;13.63;;;5.38;;
70153;SDS011;57519;51.494;-2.626;2022-10-10T07:23:09;13.27;;;6.50;;
70153;SDS011;57519;51.494;-2.626;2022-10-10T07:25:36;11.17;;;6.10;;
70153;SDS011;57519;51.494;-2.626;2022-10-10T07:28:03;13.13;;;6.30;;
70153;SDS011;57519;51.494;-2.626;2022-10-10T07:30:29;14.15;;;5.35;;
70153;SDS011;57519;51.494;-2.626;2022-10-10T07:32:54;16.10;;;7.10;;
70153;SDS011;57519;51.494;-2.626;2022-10-10T07:35:20;13.43;;;6.07;;
70153;SDS011;57519;51.494;-2.626;2022-10-10T07:37:46;12.33;;;5.80;;
70153;SDS011;57519;51.494;-2.626;2022-10-10T07:40:12;18.38;;;6.57;;
70153;SDS011;57519;51.494;-2.626;2022-10-10T07:42:37;15.83;;;5.97;;
70153;SDS011;57519;51.494;-2.626;2022-10-10T07:45:03;12.63;;;5.33;;
70153;SDS011;57519;51.494;-2.626;2022-10-10T07:47:29;15.80;;;6.07;;
70153;SDS011;57519;51.494;-2.626;2022-10-10T07:49:55;16.00;;;7.50;;
70153;SDS011;57519;51.494;-2.626;2022-10-10T07:52:20;15.73;;;8.77;;
70153;SDS011;57519;51.494;-2.626;2022-10-10T07:54:45;12.73;;;7.10;;
70153;SDS011;57519;51.494;-2.626;2022-10-10T07:57:11;17.67;;;8.93;;
70153;SDS011;57519;51.494;-2.626;2022-10-10T07:59:36;15.33;;;8.67;;
70153;SDS011;57519;51.494;-2.626;2022-10-10T08:02:02;13.40;;;9.40;;
70153;SDS011;57519;51.494;-2.626;2022-10-10T08:04:27;12.37;;;9.23;;
70153;SDS011;57519;51.494;-2.626;2022-10-10T08:06:53;12.33;;;8.80;;
70153;SDS011;57519;51.494;-2.626;2022-10-10T08:09:18;15.77;;;7.40;;
70153;SDS011;57519;51.494;-2.626;2022-10-10T08:11:43;8.77;;;6.23;;
70153;SDS011;57519;51.494;-2.626;2022-10-10T08:14:09;12.53;;;6.90;;
70153;SDS011;57519;51.494;-2.626;2022-10-10T08:16:35;14.30;;;6.20;;
70153;SDS011;57519;51.494;-2.626;2022-10-10T08:19:00;8.60;;;5.07;;
70153;SDS011;57519;51.494;-2.626;2022-10-10T08:21:25;13.80;;;4.30;;
70153;SDS011;57519;51.494;-2.626;2022-10-10T08:23:51;6.97;;;4.63;;
70153;SDS011;57519;51.494;-2.626;2022-10-10T08:26:16;11.13;;;4.73;;
70153;SDS011;57519;51.494;-2.626;2022-10-10T08:28:43;7.43;;;4.35;;
70153;SDS011;57519;51.494;-2.626;2022-10-10T08:31:12;8.48;;;4.00;;
70153;SDS011;57519;51.494;-2.626;2022-10-10T08:33:40;8.65;;;4.25;;
70153;SDS011;57519;51.494;-2.626;2022-10-10T08:36:08;16.47;;;5.27;;
70153;SDS011;57519;51.494;-2.626;2022-10-10T08:38:38;9.77;;;3.92;;
70153;SDS011;57519;51.494;-2.626;2022-10-10T08:41:08;8.97;;;4.73;;
70153;SDS011;57519;51.494;-2.626;2022-10-10T08:43:47;10.73;;;4.60;;
70153;SDS011;57519;51.494;-2.626;2022-10-10T08:46:17;10.25;;;4.85;;
70153;SDS011;57519;51.494;-2.626;2022-10-10T08:48:51;8.70;;;4.40;;
70153;SDS011;57519;51.494;-2.626;2022-10-10T08:51:27;9.98;;;4.95;;
70153;SDS011;57519;51.494;-2.626;2022-10-10T08:53:57;13.43;;;4.47;;
70153;SDS011;57519;51.494;-2.626;2022-10-10T08:56:29;9.82;;;4.00;;
70153;SDS011;57519;51.494;-2.626;2022-10-10T08:59:02;7.03;;;3.70;;
70153;SDS011;57519;51.494;-2.626;2022-10-10T09:01:35;9.95;;;4.55;;
70153;SDS011;57519;51.494;-2.626;2022-10-10T09:04:03;11.77;;;3.72;;
70153;SDS011;57519;51.494;-2.626;2022-10-10T09:12:44;10.75;;;4.65;;
70153;SDS011;57519;51.494;-2.626;2022-10-10T09:20:52;13.67;;;4.10;;
70153;SDS011;57519;51.494;-2.626;2022-10-10T09:26:45;9.73;;;3.80;;
70153;SDS011;57519;51.494;-2.626;2022-10-10T09:29:23;11.13;;;3.47;;
70153;SDS011;57519;51.494;-2.626;2022-10-10T09:31:53;8.35;;;3.83;;
70153;SDS011;57519;51.494;-2.626;2022-10-10T09:34:42;10.27;;;4.23;;
70153;SDS011;57519;51.494;-2.626;2022-10-10T09:37:16;9.07;;;3.92;;
70153;SDS011;57519;51.494;-2.626;2022-10-10T09:39:49;11.07;;;3.80;;
70153;SDS011;57519;51.494;-2.626;2022-10-10T09:42:18;11.23;;;4.50;;
70153;SDS011;57519;51.494;-2.626;2022-10-10T09:44:47;8.60;;;4.65;;
70153;SDS011;57519;51.494;-2.626;2022-10-10T09:47:13;9.90;;;4.10;;
70153;SDS011;57519;51.494;-2.626;2022-10-10T09:49:40;8.48;;;4.13;;
70153;SDS011;57519;51.494;-2.626;2022-10-10T09:52:40;12.17;;;5.13;;
70153;SDS011;57519;51.494;-2.626;2022-10-10T09:55:05;12.93;;;4.57;;
70153;SDS011;57519;51.494;-2.626;2022-10-10T09:57:48;8.18;;;3.42;;
70153;SDS011;57519;51.494;-2.626;2022-10-10T10:02:47;10.48;;;3.97;;
70153;SDS011;57519;51.494;-2.626;2022-10-10T10:05:33;10.07;;;3.67;;
70153;SDS011;57519;51.494;-2.626;2022-10-10T10:08:00;12.07;;;3.90;;
70153;SDS011;57519;51.494;-2.626;2022-10-10T10:10:26;12.60;;;4.03;;
70153;SDS011;57519;51.494;-2.626;2022-10-10T10:12:54;9.07;;;4.00;;
70153;SDS011;57519;51.494;-2.626;2022-10-10T10:15:22;12.40;;;4.65;;
70153;SDS011;57519;51.494;-2.626;2022-10-10T10:20:41;7.80;;;3.92;;
70153;SDS011;57519;51.494;-2.626;2022-10-10T10:26:00;8.63;;;3.87;;
70153;SDS011;57519;51.494;-2.626;2022-10-10T10:28:26;9.32;;;3.63;;
70153;SDS011;57519;51.494;-2.626;2022-10-10T10:30:52;8.70;;;3.75;;
70153;SDS011;57519;51.494;-2.626;2022-10-10T10:39:47;7.32;;;3.58;;
70153;SDS011;57519;51.494;-2.626;2022-10-10T10:52:56;7.70;;;3.42;;
70153;SDS011;57519;51.494;-2.626;2022-10-10T10:55:44;6.30;;;3.22;;
70153;SDS011;57519;51.494;-2.626;2022-10-10T11:07:04;9.75;;;4.05;;
70153;SDS011;57519;51.494;-2.626;2022-10-10T11:15:17;12.55;;;3.97;;
70153;SDS011;57519;51.494;-2.626;2022-10-10T11:25:53;10.38;;;3.10;;
70153;SDS011;57519;51.494;-2.626;2022-10-10T11:30:58;11.57;;;3.63;;
70153;SDS011;57519;51.494;-2.626;2022-10-10T11:33:30;7.30;;;2.97;;
70153;SDS011;57519;51.494;-2.626;2022-10-10T11:36:03;9.23;;;2.92;;
70153;SDS011;57519;51.494;-2.626;2022-10-10T11:44:04;12.43;;;3.63;;
70153;SDS011;57519;51.494;-2.626;2022-10-10T11:46:38;9.15;;;2.63;;
70153;SDS011;57519;51.494;-2.626;2022-10-10T11:49:13;7.40;;;3.08;;
70153;SDS011;57519;51.494;-2.626;2022-10-10T11:54:39;9.00;;;3.17;;
70153;SDS011;57519;51.494;-2.626;2022-10-10T11:57:35;9.30;;;3.30;;
70153;SDS011;57519;51.494;-2.626;2022-10-10T12:00:14;7.50;;;3.03;;
70153;SDS011;57519;51.494;-2.626;2022-10-10T12:02:41;8.50;;;3.30;;
70153;SDS011;57519;51.494;-2.626;2022-10-10T12:10:29;5.87;;;2.63;;
70153;SDS011;57519;51.494;-2.626;2022-10-10T12:13:18;8.23;;;3.00;;
70153;SDS011;57519;51.494;-2.626;2022-10-10T12:16:02;8.52;;;2.92;;
70153;SDS011;57519;51.494;-2.626;2022-10-10T12:18:42;11.73;;;3.10;;
70153;SDS011;57519;51.494;-2.626;2022-10-10T12:21:12;9.57;;;2.95;;
70153;SDS011;57519;51.494;-2.626;2022-10-10T12:23:41;7.87;;;2.60;;
70153;SDS011;57519;51.494;-2.626;2022-10-10T12:37:29;11.53;;;3.47;;
70153;SDS011;57519;51.494;-2.626;2022-10-10T12:42:37;8.10;;;3.45;;
70153;SDS011;57519;51.494;-2.626;2022-10-10T12:47:56;6.60;;;3.08;;
70153;SDS011;57519;51.494;-2.626;2022-10-10T12:55:46;8.27;;;3.30;;
70153;SDS011;57519;51.494;-2.626;2022-10-10T12:58:15;9.35;;;3.65;;
70153;SDS011;57519;51.494;-2.626;2022-10-10T13:00:42;8.60;;;3.50;;
70153;SDS011;57519;51.494;-2.626;2022-10-10T13:03:10;7.70;;;2.83;;
70153;SDS011;57519;51.494;-2.626;2022-10-10T13:05:42;8.18;;;2.92;;
70153;SDS011;57519;51.494;-2.626;2022-10-10T13:08:11;11.18;;;3.70;;
70153;SDS011;57519;51.494;-2.626;2022-10-10T13:10:39;7.65;;;2.88;;
70153;SDS011;57519;51.494;-2.626;2022-10-10T13:13:05;11.13;;;3.10;;
70153;SDS011;57519;51.494;-2.626;2022-10-10T13:15:37;7.00;;;2.78;;
70153;SDS011;57519;51.494;-2.626;2022-10-10T13:18:06;8.37;;;3.10;;
70153;SDS011;57519;51.494;-2.626;2022-10-10T13:20:35;9.40;;;3.15;;
70153;SDS011;57519;51.494;-2.626;2022-10-10T13:23:09;7.43;;;2.78;;
70153;SDS011;57519;51.494;-2.626;2022-10-10T13:25:37;10.95;;;3.50;;
70153;SDS011;57519;51.494;-2.626;2022-10-10T13:28:04;8.02;;;3.35;;
70153;SDS011;57519;51.494;-2.626;2022-10-10T13:30:42;12.83;;;3.40;;
70153;SDS011;57519;51.494;-2.626;2022-10-10T13:33:13;7.18;;;2.83;;
70153;SDS011;57519;51.494;-2.626;2022-10-10T13:35:44;5.63;;;2.67;;
70153;SDS011;57519;51.494;-2.626;2022-10-10T13:38:11;13.02;;;3.70;;
70153;SDS011;57519;51.494;-2.626;2022-10-10T13:40:38;101.05;;;14.18;;
70153;SDS011;57519;51.494;-2.626;2022-10-10T13:43:10;9.03;;;3.13;;
70153;SDS011;57519;51.494;-2.626;2022-10-10T13:46:04;7.80;;;3.42;;
70153;SDS011;57519;51.494;-2.626;2022-10-10T13:51:01;9.15;;;2.85;;
70153;SDS011;57519;51.494;-2.626;2022-10-10T13:53:34;6.78;;;2.90;;
70153;SDS011;57519;51.494;-2.626;2022-10-10T13:59:07;8.70;;;3.38;;
70153;SDS011;57519;51.494;-2.626;2022-10-10T14:01:41;7.63;;;2.80;;
70153;SDS011;57519;51.494;-2.626;2022-10-10T14:06:37;9.95;;;3.08;;
70153;SDS011;57519;51.494;-2.626;2022-10-10T14:09:12;8.47;;;2.97;;
70153;SDS011;57519;51.494;-2.626;2022-10-10T14:12:05;9.70;;;3.65;;
70153;SDS011;57519;51.494;-2.626;2022-10-10T14:14:48;10.32;;;3.40;;
70153;SDS011;57519;51.494;-2.626;2022-10-10T14:17:15;8.93;;;3.28;;
70153;SDS011;57519;51.494;-2.626;2022-10-10T14:19:43;4.82;;;2.60;;
70153;SDS011;57519;51.494;-2.626;2022-10-10T14:22:10;10.97;;;3.43;;
70153;SDS011;57519;51.494;-2.626;2022-10-10T14:24:35;6.10;;;3.35;;
70153;SDS011;57519;51.494;-2.626;2022-10-10T14:27:05;9.93;;;3.60;;
70153;SDS011;57519;51.494;-2.626;2022-10-10T14:29:37;5.53;;;2.55;;
70153;SDS011;57519;51.494;-2.626;2022-10-10T14:32:03;13.03;;;3.97;;
70153;SDS011;57519;51.494;-2.626;2022-10-10T14:34:28;8.50;;;3.47;;
70153;SDS011;57519;51.494;-2.626;2022-10-10T14:36:54;8.37;;;3.13;;
70153;SDS011;57519;51.494;-2.626;2022-10-10T14:39:19;12.53;;;3.70;;
70153;SDS011;57519;51.494;-2.626;2022-10-10T14:41:44;10.30;;;3.27;;
70153;SDS011;57519;51.494;-2.626;2022-10-10T14:44:10;8.57;;;3.38;;
70153;SDS011;57519;51.494;-2.626;2022-10-10T14:46:36;4.93;;;2.60;;
70153;SDS011;57519;51.494;-2.626;2022-10-10T14:49:03;6.68;;;2.85;;
70153;SDS011;57519;51.494;-2.626;2022-10-10T14:51:29;8.23;;;3.38;;
70153;SDS011;57519;51.494;-2.626;2022-10-10T14:54:01;8.82;;;2.90;;
70153;SDS011;57519;51.494;-2.626;2022-10-10T14:56:26;7.67;;;3.33;;
70153;SDS011;57519;51.494;-2.626;2022-10-10T14:58:53;7.57;;;2.97;;
70153;SDS011;57519;51.494;-2.626;2022-10-10T15:01:18;8.30;;;3.20;;
70153;SDS011;57519;51.494;-2.626;2022-10-10T15:03:44;8.75;;;3.42;;
70153;SDS011;57519;51.494;-2.626;2022-10-10T15:06:10;16.97;;;4.63;;
70153;SDS011;57519;51.494;-2.626;2022-10-10T15:08:35;5.78;;;3.22;;
70153;SDS011;57519;51.494;-2.626;2022-10-10T15:11:01;7.90;;;3.27;;
70153;SDS011;57519;51.494;-2.626;2022-10-10T15:13:26;4.93;;;2.53;;
70153;SDS011;57519;51.494;-2.626;2022-10-10T15:15:52;5.93;;;3.17;;
70153;SDS011;57519;51.494;-2.626;2022-10-10T15:18:17;8.93;;;3.53;;
70153;SDS011;57519;51.494;-2.626;2022-10-10T15:20:42;11.23;;;2.77;;
70153;SDS011;57519;51.494;-2.626;2022-10-10T15:23:08;7.07;;;3.10;;
70153;SDS011;57519;51.494;-2.626;2022-10-10T15:25:34;6.63;;;2.85;;
70153;SDS011;57519;51.494;-2.626;2022-10-10T15:28:03;8.27;;;3.50;;
70153;SDS011;57519;51.494;-2.626;2022-10-10T15:30:29;17.25;;;4.55;;
70153;SDS011;57519;51.494;-2.626;2022-10-10T15:32:54;7.90;;;3.67;;
70153;SDS011;57519;51.494;-2.626;2022-10-10T15:35:21;10.55;;;3.75;;
70153;SDS011;57519;51.494;-2.626;2022-10-10T15:37:48;8.80;;;3.47;;
70153;SDS011;57519;51.494;-2.626;2022-10-10T15:40:15;17.03;;;5.17;;
70153;SDS011;57519;51.494;-2.626;2022-10-10T15:42:44;15.45;;;4.78;;
70153;SDS011;57519;51.494;-2.626;2022-10-10T15:45:10;9.65;;;3.78;;
70153;SDS011;57519;51.494;-2.626;2022-10-10T15:47:40;7.50;;;3.47;;
70153;SDS011;57519;51.494;-2.626;2022-10-10T15:50:06;13.77;;;4.15;;
70153;SDS011;57519;51.494;-2.626;2022-10-10T15:52:34;18.93;;;5.80;;
70153;SDS011;57519;51.494;-2.626;2022-10-10T15:55:00;11.65;;;4.00;;
70153;SDS011;57519;51.494;-2.626;2022-10-10T15:57:25;8.10;;;3.35;;
70153;SDS011;57519;51.494;-2.626;2022-10-10T15:59:51;9.77;;;3.90;;
70153;SDS011;57519;51.494;-2.626;2022-10-10T16:02:16;10.53;;;3.97;;
70153;SDS011;57519;51.494;-2.626;2022-10-10T16:04:42;12.80;;;4.20;;
70153;SDS011;57519;51.494;-2.626;2022-10-10T16:07:08;10.65;;;3.88;;
70153;SDS011;57519;51.494;-2.626;2022-10-10T16:09:34;13.07;;;4.00;;
70153;SDS011;57519;51.494;-2.626;2022-10-10T16:11:59;9.87;;;4.47;;
70153;SDS011;57519;51.494;-2.626;2022-10-10T16:14:25;8.27;;;3.28;;
70153;SDS011;57519;51.494;-2.626;2022-10-10T16:16:51;7.43;;;3.40;;
70153;SDS011;57519;51.494;-2.626;2022-10-10T16:19:16;12.00;;;4.00;;
70153;SDS011;57519;51.494;-2.626;2022-10-10T16:21:42;11.65;;;4.10;;
70153;SDS011;57519;51.494;-2.626;2022-10-10T16:24:08;13.73;;;4.63;;
70153;SDS011;57519;51.494;-2.626;2022-10-10T16:26:34;11.00;;;3.63;;
70153;SDS011;57519;51.494;-2.626;2022-10-10T16:29:01;8.50;;;3.30;;
70153;SDS011;57519;51.494;-2.626;2022-10-10T16:31:29;10.10;;;3.65;;
70153;SDS011;57519;51.494;-2.626;2022-10-10T16:33:55;11.07;;;4.07;;
70153;SDS011;57519;51.494;-2.626;2022-10-10T16:36:22;13.73;;;4.23;;
70153;SDS011;57519;51.494;-2.626;2022-10-10T16:38:56;12.20;;;3.45;;
70153;SDS011;57519;51.494;-2.626;2022-10-10T16:41:23;11.43;;;3.47;;
70153;SDS011;57519;51.494;-2.626;2022-10-10T16:43:50;9.18;;;3.67;;
70153;SDS011;57519;51.494;-2.626;2022-10-10T16:46:16;12.33;;;4.20;;
70153;SDS011;57519;51.494;-2.626;2022-10-10T16:48:44;7.07;;;2.88;;
70153;SDS011;57519;51.494;-2.626;2022-10-10T16:51:15;6.97;;;3.17;;